Time;durP1;ratioP1;P1;durP2;ratioP2;P2;SDS_P1;SDS_P2;PMS_P1;PMS_P2;Temp;Humidity;BMP_temperature;BMP_pressure;BME280_temperature;BME280_humidity;BME280_pressure;Samples;Min_cycle;Max_cycle;Signal;HPM_P1;HPM_P2
2022/05/14 00:01:54;;;;;;;4.82;3.53;;;;;;;;;;10357410;28;20078;-56
2022/05/14 00:06:52;;;;;;;6.95;3.28;;;;;;;;;;10363032;28;20075;-57
2022/05/14 00:17:08;;;;;;;3.85;2.90;;;;;;;;;;10362902;28;20063;-57
2022/05/14 00:22:06;;;;;;;3.83;2.90;;;;;;;;;;10362666;28;20079;-58
2022/05/14 00:27:04;;;;;;;3.17;2.50;;;;;;;;;;10362944;28;20079;-58
2022/05/14 00:32:03;;;;;;;4.40;3.15;;;;;;;;;;10362380;28;20079;-59
2022/05/14 00:37:02;;;;;;;3.28;2.97;;;;;;;;;;10362162;28;20083;-58
2022/05/14 00:42:00;;;;;;;3.95;3.50;;;;;;;;;;10361629;28;20040;-57
2022/05/14 00:46:59;;;;;;;7.05;3.20;;;;;;;;;;10360538;28;20079;-58
2022/05/14 00:51:58;;;;;;;4.43;3.08;;;;;;;;;;10360209;28;20496;-57
2022/05/14 00:57:01;;;;;;;3.33;2.80;;;;;;;;;;10360132;28;20048;-58
2022/05/14 01:02:00;;;;;;;5.72;3.00;;;;;;;;;;10359216;28;20425;-58
2022/05/14 01:07:01;;;;;;;2.70;2.50;;;;;;;;;;10358687;28;20040;-57
2022/05/14 01:12:01;;;;;;;3.28;2.97;;;;;;;;;;10359323;28;20501;-56
2022/05/14 01:17:03;;;;;;;6.85;3.00;;;;;;;;;;10358721;28;20051;-57
2022/05/14 01:22:09;;;;;;;4.47;2.80;;;;;;;;;;10358684;28;20048;-58
2022/05/14 01:27:17;;;;;;;7.25;3.00;;;;;;;;;;10358413;28;20059;-58
2022/05/14 01:32:16;;;;;;;4.07;3.15;;;;;;;;;;10360599;28;20068;-57
2022/05/14 01:37:14;;;;;;;6.15;3.25;;;;;;;;;;10358844;28;20048;-57
2022/05/14 01:42:14;;;;;;;3.28;2.90;;;;;;;;;;10353934;28;20299;-57
2022/05/14 01:47:14;;;;;;;3.60;3.03;;;;;;;;;;10357957;28;20476;-58
2022/05/14 01:52:13;;;;;;;5.60;3.47;;;;;;;;;;10357863;28;20071;-57
2022/05/14 01:57:11;;;;;;;3.83;3.30;;;;;;;;;;10349892;28;20048;-57
2022/05/14 02:02:11;;;;;;;4.03;3.40;;;;;;;;;;10357153;28;20508;-58
2022/05/14 02:07:11;;;;;;;6.45;3.33;;;;;;;;;;10345736;28;20083;-57
2022/05/14 02:12:10;;;;;;;3.50;2.88;;;;;;;;;;10358422;28;20126;-58
2022/05/14 02:17:08;;;;;;;5.07;2.83;;;;;;;;;;10356822;28;20063;-57
2022/05/14 02:22:07;;;;;;;4.60;3.38;;;;;;;;;;10347284;28;20043;-57
2022/05/14 02:27:06;;;;;;;3.50;3.20;;;;;;;;;;10357178;28;20643;-58
2022/05/14 02:32:05;;;;;;;3.28;2.97;;;;;;;;;;10357234;28;20075;-58
2022/05/14 02:37:04;;;;;;;4.60;3.22;;;;;;;;;;10357296;28;20044;-58
2022/05/14 02:42:02;;;;;;;4.20;3.05;;;;;;;;;;10357140;28;20521;-58
2022/05/14 02:47:02;;;;;;;3.38;2.78;;;;;;;;;;10357002;28;20512;-58
2022/05/14 02:52:00;;;;;;;4.22;2.85;;;;;;;;;;10357178;28;20090;-57
2022/05/14 02:56:58;;;;;;;7.97;2.97;;;;;;;;;;10356768;28;20064;-57
2022/05/14 03:01:57;;;;;;;3.88;3.20;;;;;;;;;;10356535;28;20060;-57
2022/05/14 03:06:57;;;;;;;4.70;3.30;;;;;;;;;;10354808;28;20086;-57
2022/05/14 03:11:56;;;;;;;8.02;3.45;;;;;;;;;;10356597;28;20079;-57
2022/05/14 03:16:55;;;;;;;5.28;3.60;;;;;;;;;;10356155;28;20060;-57
2022/05/14 03:21:54;;;;;;;7.13;3.05;;;;;;;;;;10354632;28;20048;-57
2022/05/14 03:26:54;;;;;;;3.90;2.92;;;;;;;;;;10355907;28;20491;-57
2022/05/14 03:31:52;;;;;;;5.53;2.67;;;;;;;;;;10355948;28;20048;-55
2022/05/14 03:36:51;;;;;;;4.47;2.90;;;;;;;;;;10347478;28;20044;-57
2022/05/14 03:41:49;;;;;;;5.43;3.55;;;;;;;;;;10354766;28;20048;-58
2022/05/14 03:46:49;;;;;;;8.57;3.72;;;;;;;;;;10355246;28;20122;-59
2022/05/14 03:51:47;;;;;;;33.88;6.78;;;;;;;;;;10342624;28;20079;-54
2022/05/14 03:56:45;;;;;;;13.75;5.55;;;;;;;;;;10355145;28;20075;-58
2022/05/14 04:01:44;;;;;;;8.10;4.07;;;;;;;;;;10353153;28;20401;-56
2022/05/14 04:06:43;;;;;;;6.32;4.38;;;;;;;;;;10352773;28;20742;-56
2022/05/14 04:11:42;;;;;;;7.20;4.38;;;;;;;;;;10353130;28;20060;-57
2022/05/14 04:16:40;;;;;;;5.78;3.95;;;;;;;;;;10353751;28;20460;-57
2022/05/14 04:21:38;;;;;;;10.18;5.47;;;;;;;;;;10352756;28;20085;-56
2022/05/14 04:26:39;;;;;;;10.63;6.22;;;;;;;;;;10347278;28;20488;-57
2022/05/14 04:31:39;;;;;;;8.85;6.05;;;;;;;;;;10352066;28;20088;-57
2022/05/14 04:36:38;;;;;;;6.75;5.65;;;;;;;;;;10346290;28;20052;-57
2022/05/14 04:41:38;;;;;;;10.13;6.07;;;;;;;;;;10345477;28;20048;-57
2022/05/14 04:46:43;;;;;;;11.23;5.63;;;;;;;;;;10352244;28;20354;-58
2022/05/14 04:51:41;;;;;;;7.35;5.10;;;;;;;;;;10358711;28;20056;-57
2022/05/14 04:56:41;;;;;;;7.32;5.10;;;;;;;;;;10353966;28;20056;-57
2022/05/14 05:03:16;;;;;;;7.63;5.47;;;;;;;;;;10370467;28;20090;-58
2022/05/14 05:06:59;;;;;;;9.48;4.70;;;;;;;;;;10373046;28;20431;-57
2022/05/14 05:11:58;;;;;;;5.10;4.25;;;;;;;;;;10359523;28;20052;-57
2022/05/14 05:16:57;;;;;;;13.77;11.23;;;;;;;;;;10360778;28;20064;-58
2022/05/14 05:21:55;;;;;;;17.10;14.63;;;;;;;;;;10360672;28;20068;-58
2022/05/14 05:26:55;;;;;;;13.45;8.52;;;;;;;;;;10360327;28;20142;-58
2022/05/14 05:31:54;;;;;;;16.67;10.90;;;;;;;;;;10360546;28;20082;-58
2022/05/14 05:36:53;;;;;;;4.65;4.15;;;;;;;;;;10359853;28;20075;-57
2022/05/14 05:41:51;;;;;;;5.22;3.60;;;;;;;;;;10359814;28;20044;-58
2022/05/14 05:46:50;;;;;;;4.68;4.28;;;;;;;;;;10359094;28;20501;-58
2022/05/14 05:51:50;;;;;;;6.53;4.57;;;;;;;;;;10356068;28;20071;-58
2022/05/14 05:56:51;;;;;;;6.32;5.40;;;;;;;;;;10357833;28;20079;-58
2022/05/14 06:01:51;;;;;;;4.40;4.00;;;;;;;;;;10354846;28;20078;-58
2022/05/14 06:06:50;;;;;;;6.30;4.88;;;;;;;;;;10353873;28;20104;-57
2022/05/14 06:11:50;;;;;;;6.28;5.22;;;;;;;;;;10354171;28;20080;-58
2022/05/14 06:16:48;;;;;;;5.50;3.70;;;;;;;;;;10356324;28;20150;-59
2022/05/14 06:21:46;;;;;;;5.28;4.47;;;;;;;;;;10352072;28;20460;-58
2022/05/14 06:26:46;;;;;;;6.72;4.35;;;;;;;;;;10348322;28;20072;-59
2022/05/14 06:31:44;;;;;;;7.85;4.63;;;;;;;;;;10353765;28;20072;-56
2022/05/14 06:36:42;;;;;;;8.75;3.90;;;;;;;;;;10352611;28;20547;-58
2022/05/14 06:41:41;;;;;;;5.22;4.03;;;;;;;;;;10349145;28;20094;-58
2022/05/14 06:46:40;;;;;;;6.07;4.47;;;;;;;;;;10353134;28;20438;-59
2022/05/14 06:51:39;;;;;;;5.40;3.92;;;;;;;;;;10348999;28;20072;-59
2022/05/14 06:56:40;;;;;;;7.78;4.22;;;;;;;;;;10350052;28;20071;-59
2022/05/14 07:01:39;;;;;;;5.82;3.92;;;;;;;;;;10347255;28;20072;-59
2022/05/14 07:06:40;;;;;;;7.55;5.00;;;;;;;;;;10345427;28;20493;-58
2022/05/14 07:11:40;;;;;;;6.63;4.15;;;;;;;;;;10345229;28;20083;-58
2022/05/14 07:16:38;;;;;;;8.90;4.60;;;;;;;;;;10347882;28;20067;-58
2022/05/14 07:21:37;;;;;;;15.32;4.90;;;;;;;;;;10356552;28;20036;-59
2022/05/14 07:26:39;;;;;;;6.95;4.95;;;;;;;;;;10356264;28;20066;-58
2022/05/14 07:31:38;;;;;;;8.95;4.72;;;;;;;;;;10356658;28;20076;-59
2022/05/14 07:36:39;;;;;;;14.68;5.32;;;;;;;;;;10356237;28;20051;-58
2022/05/14 07:41:41;;;;;;;11.57;4.10;;;;;;;;;;10355922;28;20036;-58
2022/05/14 07:46:39;;;;;;;6.53;4.40;;;;;;;;;;10349839;28;20516;-59
2022/05/14 07:51:38;;;;;;;6.88;4.07;;;;;;;;;;10349067;28;20072;-58
2022/05/14 07:56:38;;;;;;;9.82;5.18;;;;;;;;;;10355611;28;20052;-59
2022/05/14 08:01:38;;;;;;;11.25;4.60;;;;;;;;;;10355418;28;20489;-59
2022/05/14 08:06:36;;;;;;;9.75;5.47;;;;;;;;;;10355487;28;20477;-59
2022/05/14 08:11:35;;;;;;;10.45;4.57;;;;;;;;;;10354814;28;20086;-59
2022/05/14 08:16:33;;;;;;;6.22;3.90;;;;;;;;;;10354396;28;20083;-59
2022/05/14 08:26:50;;;;;;;11.50;4.10;;;;;;;;;;10362402;28;20520;-59
2022/05/14 08:31:48;;;;;;;9.73;4.32;;;;;;;;;;10361961;28;20076;-59
2022/05/14 08:36:48;;;;;;;8.50;4.72;;;;;;;;;;10355232;28;20070;-59
2022/05/14 08:41:48;;;;;;;6.85;3.58;;;;;;;;;;10360399;28;20082;-59
2022/05/14 08:46:47;;;;;;;3.45;3.15;;;;;;;;;;10360950;28;20539;-59
2022/05/14 08:51:46;;;;;;;6.40;5.68;;;;;;;;;;10361695;28;20075;-59
2022/05/14 08:56:48;;;;;;;3.97;3.47;;;;;;;;;;10359631;28;20181;-60
2022/05/14 09:01:47;;;;;;;4.63;4.05;;;;;;;;;;10361616;28;20051;-59
2022/05/14 09:06:45;;;;;;;7.10;4.15;;;;;;;;;;10359974;28;20091;-60
2022/05/14 09:11:45;;;;;;;7.07;4.30;;;;;;;;;;10359577;28;20087;-59
2022/05/14 09:16:45;;;;;;;5.57;4.45;;;;;;;;;;10360608;28;20067;-59
2022/05/14 09:21:49;;;;;;;6.53;3.60;;;;;;;;;;10353145;28;20084;-59
2022/05/14 09:26:48;;;;;;;9.00;5.30;;;;;;;;;;10359009;28;20067;-59
2022/05/14 09:31:54;;;;;;;5.10;4.65;;;;;;;;;;10357839;28;20082;-60
2022/05/14 09:36:52;;;;;;;7.97;4.38;;;;;;;;;;10354706;28;20048;-59
2022/05/14 09:41:53;;;;;;;5.60;4.90;;;;;;;;;;10353914;28;20060;-59
2022/05/14 09:47:05;;;;;;;6.35;4.57;;;;;;;;;;10359302;28;20452;-59
2022/05/14 09:52:05;;;;;;;15.57;6.35;;;;;;;;;;10356899;28;20080;-59
2022/05/14 09:57:21;;;;;;;6.97;5.38;;;;;;;;;;10356207;28;20076;-59
2022/05/14 10:02:26;;;;;;;8.48;5.05;;;;;;;;;;10356853;28;20075;-59
2022/05/14 10:07:28;;;;;;;6.13;4.80;;;;;;;;;;10356092;28;20511;-58
2022/05/14 10:12:29;;;;;;;9.65;4.38;;;;;;;;;;10355361;28;20071;-57
2022/05/14 10:17:37;;;;;;;8.48;5.00;;;;;;;;;;10351599;28;20480;-58
2022/05/14 10:27:59;;;;;;;9.32;4.80;;;;;;;;;;10356800;28;20075;-60
2022/05/14 10:33:02;;;;;;;9.55;5.45;;;;;;;;;;10354768;28;20075;-57
2022/05/14 10:38:05;;;;;;;8.95;5.13;;;;;;;;;;10350524;28;20071;-58
2022/05/14 10:43:21;;;;;;;6.13;4.97;;;;;;;;;;10352870;28;20074;-58
2022/05/14 10:48:30;;;;;;;8.10;4.75;;;;;;;;;;10356857;28;20070;-58
2022/05/14 10:53:28;;;;;;;5.18;4.72;;;;;;;;;;10353255;28;20048;-57
2022/05/14 10:58:39;;;;;;;5.47;4.43;;;;;;;;;;10355419;28;20074;-58
2022/05/14 11:03:55;;;;;;;15.52;6.13;;;;;;;;;;10354820;28;20059;-58
2022/05/14 11:09:00;;;;;;;6.80;4.87;;;;;;;;;;10353382;28;20091;-56
2022/05/14 11:14:01;;;;;;;5.55;5.05;;;;;;;;;;10355484;28;20083;-56
2022/05/14 11:19:04;;;;;;;7.60;4.65;;;;;;;;;;10353643;28;20064;-58
2022/05/14 11:24:02;;;;;;;9.50;5.22;;;;;;;;;;10355439;28;20075;-58
2022/05/14 11:29:02;;;;;;;8.23;6.05;;;;;;;;;;10352542;28;20063;-58
2022/05/14 11:34:15;;;;;;;8.45;6.60;;;;;;;;;;10353306;28;20457;-58
2022/05/14 11:39:24;;;;;;;9.50;4.97;;;;;;;;;;10354539;28;20063;-58
2022/05/14 11:44:27;;;;;;;8.40;4.93;;;;;;;;;;10353731;28;20075;-59
2022/05/14 11:49:29;;;;;;;11.70;5.30;;;;;;;;;;10353377;28;20076;-58
2022/05/14 11:54:30;;;;;;;11.88;5.88;;;;;;;;;;10349740;28;20071;-58
2022/05/14 11:59:34;;;;;;;10.18;5.75;;;;;;;;;;10354270;28;20084;-57
2022/05/14 12:04:32;;;;;;;;;;;;;;;;;;10359272;28;20489;-58
2022/05/14 12:09:42;;;;;;;9.98;5.50;;;;;;;;;;10356824;28;19974;-58
2022/05/14 12:14:40;;;;;;;11.63;5.50;;;;;;;;;;10358775;28;20543;-57
2022/05/14 12:19:40;;;;;;;22.98;19.92;;;;;;;;;;10360166;28;20071;-57
2022/05/14 12:24:40;;;;;;;11.02;9.65;;;;;;;;;;10362839;28;20165;-58
2022/05/14 12:29:39;;;;;;;8.50;6.13;;;;;;;;;;10363048;28;20083;-58
2022/05/14 12:34:38;;;;;;;7.85;6.70;;;;;;;;;;10362237;28;20139;-58
2022/05/14 12:39:37;;;;;;;11.00;7.00;;;;;;;;;;10362259;28;20067;-58
2022/05/14 12:44:38;;;;;;;8.52;6.05;;;;;;;;;;10362927;28;20094;-59
2022/05/14 12:49:38;;;;;;;8.05;4.72;;;;;;;;;;10362727;28;20067;-58
2022/05/14 12:54:41;;;;;;;8.38;5.35;;;;;;;;;;10361375;28;20076;-58
2022/05/14 12:59:41;;;;;;;5.77;5.27;;;;;;;;;;10362205;28;20036;-58
2022/05/14 13:04:41;;;;;;;7.22;5.70;;;;;;;;;;10362314;28;20785;-58
2022/05/14 13:09:40;;;;;;;6.60;5.00;;;;;;;;;;10358544;28;20075;-58
2022/05/14 13:14:39;;;;;;;8.93;5.90;;;;;;;;;;10361966;28;20063;-58
2022/05/14 13:19:40;;;;;;;9.90;5.28;;;;;;;;;;10360364;28;20082;-58
2022/05/14 13:24:38;;;;;;;11.25;5.85;;;;;;;;;;10358517;28;20082;-58
2022/05/14 13:29:37;;;;;;;6.90;6.10;;;;;;;;;;10357143;28;20106;-58
2022/05/14 13:39:54;;;;;;;9.88;4.80;;;;;;;;;;10359782;28;20114;-58
2022/05/14 13:44:58;;;;;;;8.32;5.93;;;;;;;;;;10360268;28;20480;-57
2022/05/14 13:49:58;;;;;;;7.55;4.78;;;;;;;;;;10360310;28;20461;-59
2022/05/14 13:55:06;;;;;;;9.80;5.20;;;;;;;;;;10359836;28;20533;-59
2022/05/14 14:00:08;;;;;;;6.88;6.18;;;;;;;;;;10357856;28;20457;-58
2022/05/14 14:05:10;;;;;;;7.05;6.40;;;;;;;;;;10357031;28;20083;-58
2022/05/14 14:10:15;;;;;;;8.85;8.05;;;;;;;;;;10355560;28;20095;-59
2022/05/14 14:15:15;;;;;;;9.05;7.47;;;;;;;;;;10348707;28;20499;-58
2022/05/14 14:20:14;;;;;;;7.75;6.18;;;;;;;;;;10355462;28;20083;-60
2022/05/14 14:25:15;;;;;;;7.72;6.47;;;;;;;;;;10355656;28;20076;-58
2022/05/14 14:30:14;;;;;;;14.60;6.63;;;;;;;;;;10358104;28;20086;-58
2022/05/14 14:35:14;;;;;;;8.98;5.60;;;;;;;;;;10349690;28;20466;-59
2022/05/14 14:40:15;;;;;;;9.75;5.88;;;;;;;;;;10358549;28;20087;-58
2022/05/14 14:45:14;;;;;;;6.40;5.80;;;;;;;;;;10357847;28;20493;-59
2022/05/14 14:50:14;;;;;;;7.88;5.63;;;;;;;;;;10345371;28;20067;-58
2022/05/14 14:55:15;;;;;;;9.43;6.10;;;;;;;;;;10349784;28;20087;-58
2022/05/14 15:00:15;;;;;;;8.07;6.30;;;;;;;;;;10349737;28;20074;-60
2022/05/14 15:05:17;;;;;;;7.18;5.60;;;;;;;;;;10350777;28;20086;-58
2022/05/14 15:10:17;;;;;;;7.53;5.50;;;;;;;;;;10356151;28;20086;-58
2022/05/14 15:15:15;;;;;;;7.10;5.53;;;;;;;;;;10353190;28;20078;-58
2022/05/14 15:20:15;;;;;;;9.23;7.78;;;;;;;;;;10352409;28;20075;-58
2022/05/14 15:25:13;;;;;;;6.18;5.57;;;;;;;;;;10352501;28;20081;-58
2022/05/14 15:30:14;;;;;;;7.63;4.82;;;;;;;;;;10355967;28;20052;-57
2022/05/14 15:35:13;;;;;;;7.20;5.88;;;;;;;;;;10356750;28;20052;-58
2022/05/14 15:40:13;;;;;;;5.25;4.75;;;;;;;;;;10356712;28;20067;-58
2022/05/14 15:45:16;;;;;;;12.00;4.80;;;;;;;;;;10355843;28;20048;-58
2022/05/14 15:50:14;;;;;;;7.57;5.40;;;;;;;;;;10351481;28;20535;-59
2022/05/14 15:55:15;;;;;;;7.93;4.20;;;;;;;;;;10351466;28;20051;-58
2022/05/14 16:00:16;;;;;;;5.28;4.30;;;;;;;;;;10355751;28;20044;-57
2022/05/14 16:05:15;;;;;;;6.32;5.18;;;;;;;;;;10350957;28;20075;-58
2022/05/14 16:20:48;;;;;;;4.40;4.00;;;;;;;;;;10350908;28;20044;-58
2022/05/14 16:25:47;;;;;;;7.32;4.70;;;;;;;;;;10354433;28;20080;-58
2022/05/14 16:30:47;;;;;;;7.13;4.63;;;;;;;;;;10354603;28;20068;-58
2022/05/14 16:35:45;;;;;;;9.02;5.97;;;;;;;;;;10354366;28;20040;-58
2022/05/14 16:40:43;;;;;;;8.55;5.10;;;;;;;;;;10354291;28;20098;-58
2022/05/14 16:45:42;;;;;;;5.57;4.75;;;;;;;;;;10358018;28;20071;-58
2022/05/14 16:50:42;;;;;;;7.70;4.32;;;;;;;;;;10363014;28;20048;-57
2022/05/14 16:55:40;;;;;;;7.70;4.53;;;;;;;;;;10363232;28;20075;-58
2022/05/14 17:00:39;;;;;;;5.15;4.47;;;;;;;;;;10362715;28;20051;-58
2022/05/14 17:05:38;;;;;;;15.35;5.20;;;;;;;;;;10355844;28;20052;-58
2022/05/14 17:10:39;;;;;;;6.03;4.63;;;;;;;;;;10361279;28;20059;-58
2022/05/14 17:15:39;;;;;;;6.00;5.25;;;;;;;;;;10359554;28;20051;-58
2022/05/14 17:20:38;;;;;;;5.55;5.00;;;;;;;;;;10349741;28;20082;-58
2022/05/14 17:25:38;;;;;;;7.97;6.18;;;;;;;;;;10358494;28;20076;-57
2022/05/14 17:30:36;;;;;;;7.05;5.43;;;;;;;;;;10360004;28;20082;-57
2022/05/14 17:35:35;;;;;;;9.43;5.13;;;;;;;;;;10360187;28;20068;-58
2022/05/14 17:40:33;;;;;;;5.57;4.72;;;;;;;;;;10359580;28;20067;-57
2022/05/14 17:45:33;;;;;;;5.90;5.40;;;;;;;;;;10360008;28;20555;-58
2022/05/14 17:50:33;;;;;;;7.75;5.97;;;;;;;;;;10359191;28;20080;-58
2022/05/14 17:55:32;;;;;;;9.32;5.78;;;;;;;;;;10351499;28;20528;-57
2022/05/14 18:00:31;;;;;;;11.52;6.40;;;;;;;;;;10359558;28;20074;-57
2022/05/14 18:05:31;;;;;;;9.23;4.95;;;;;;;;;;10357792;28;20058;-58
2022/05/14 18:10:30;;;;;;;11.48;5.20;;;;;;;;;;10358782;28;20054;-58
2022/05/14 18:15:28;;;;;;;10.45;6.10;;;;;;;;;;10358225;28;20078;-58
2022/05/14 18:20:26;;;;;;;7.38;5.43;;;;;;;;;;10358403;28;20072;-58
2022/05/14 18:25:26;;;;;;;9.20;5.55;;;;;;;;;;10357590;28;20079;-58
2022/05/14 18:30:25;;;;;;;8.02;5.38;;;;;;;;;;10357545;28;20052;-58
2022/05/14 18:35:24;;;;;;;6.60;5.57;;;;;;;;;;10357725;28;20556;-58
2022/05/14 18:40:24;;;;;;;8.13;5.22;;;;;;;;;;10357717;28;20082;-58
2022/05/14 18:45:25;;;;;;;8.27;5.25;;;;;;;;;;10357271;28;20611;-58
2022/05/14 18:50:23;;;;;;;8.68;6.35;;;;;;;;;;10356963;28;20158;-59
2022/05/14 18:55:21;;;;;;;10.27;6.22;;;;;;;;;;10354062;28;20094;-58
2022/05/14 19:00:21;;;;;;;8.68;6.78;;;;;;;;;;10355563;28;20071;-57
2022/05/14 19:10:40;;;;;;;12.80;7.35;;;;;;;;;;10351877;28;20091;-52
2022/05/14 19:15:39;;;;;;;7.82;5.95;;;;;;;;;;10355335;28;20075;-57
2022/05/14 19:20:39;;;;;;;6.85;6.10;;;;;;;;;;10354113;28;20476;-58
2022/05/14 19:25:38;;;;;;;10.38;6.65;;;;;;;;;;10355334;28;20082;-57
2022/05/14 19:30:37;;;;;;;7.05;6.20;;;;;;;;;;10353978;28;20521;-57
2022/05/14 19:35:39;;;;;;;8.80;5.90;;;;;;;;;;10355068;28;20113;-58
2022/05/14 19:40:39;;;;;;;8.95;6.05;;;;;;;;;;10353943;28;20075;-58
2022/05/14 19:45:39;;;;;;;6.45;5.78;;;;;;;;;;10352397;28;20036;-57
2022/05/14 19:50:38;;;;;;;6.55;5.95;;;;;;;;;;10355633;28;20036;-56
2022/05/14 19:55:38;;;;;;;7.13;5.68;;;;;;;;;;10354258;28;20090;-57
2022/05/14 20:00:38;;;;;;;6.65;5.10;;;;;;;;;;10355955;28;20040;-53
2022/05/14 20:05:37;;;;;;;6.47;5.65;;;;;;;;;;10355858;28;20068;-58
2022/05/14 20:10:37;;;;;;;6.38;5.45;;;;;;;;;;10355229;28;20082;-56
2022/05/14 20:15:36;;;;;;;8.50;5.75;;;;;;;;;;10355017;28;20516;-57
2022/05/14 20:20:52;;;;;;;7.00;6.25;;;;;;;;;;10358290;28;20044;-58
2022/05/14 20:25:52;;;;;;;6.32;5.55;;;;;;;;;;10360423;28;20087;-58
2022/05/14 20:30:51;;;;;;;8.25;5.90;;;;;;;;;;10359291;28;20075;-55
2022/05/14 20:35:50;;;;;;;8.07;5.65;;;;;;;;;;10362712;28;20098;-59
2022/05/14 20:40:49;;;;;;;8.98;6.43;;;;;;;;;;10358776;28;20055;-57
2022/05/14 20:45:47;;;;;;;7.03;5.55;;;;;;;;;;10362443;28;20497;-58
2022/05/14 20:50:45;;;;;;;7.30;6.30;;;;;;;;;;10362520;28;20071;-58
2022/05/14 20:55:45;;;;;;;9.48;6.40;;;;;;;;;;10362218;28;20098;-58
2022/05/14 21:00:44;;;;;;;7.70;6.90;;;;;;;;;;10361673;28;20460;-57
2022/05/14 21:05:43;;;;;;;15.43;7.78;;;;;;;;;;10360934;28;20087;-58
2022/05/14 21:10:41;;;;;;;9.85;6.65;;;;;;;;;;10361405;28;20056;-57
2022/05/14 21:15:41;;;;;;;10.50;6.90;;;;;;;;;;10361166;28;20067;-56
2022/05/14 21:20:40;;;;;;;14.52;6.75;;;;;;;;;;10357521;28;20060;-55
2022/05/14 21:25:38;;;;;;;7.80;7.00;;;;;;;;;;10360261;28;20150;-59
2022/05/14 21:30:37;;;;;;;9.23;8.13;;;;;;;;;;10360331;28;20075;-56
2022/05/14 21:40:52;;;;;;;9.23;6.85;;;;;;;;;;10360275;28;20070;-57
2022/05/14 21:45:52;;;;;;;7.43;6.55;;;;;;;;;;10356407;28;20080;-57
2022/05/14 21:50:52;;;;;;;7.45;6.72;;;;;;;;;;10356206;28;20063;-57
2022/05/14 21:55:51;;;;;;;10.32;6.82;;;;;;;;;;10359699;28;20079;-55
2022/05/14 22:01:06;;;;;;;8.68;7.13;;;;;;;;;;10355549;28;20073;-57
2022/05/14 22:06:06;;;;;;;7.47;6.80;;;;;;;;;;10359049;28;20048;-56
2022/05/14 22:11:04;;;;;;;11.05;7.05;;;;;;;;;;10359038;28;20688;-56
2022/05/14 22:16:02;;;;;;;8.38;6.95;;;;;;;;;;10358973;28;20525;-57
2022/05/14 22:21:01;;;;;;;10.68;7.82;;;;;;;;;;10357878;28;20094;-57
2022/05/14 22:26:00;;;;;;;11.93;6.57;;;;;;;;;;10358409;28;20079;-57
2022/05/14 22:30:59;;;;;;;7.85;5.53;;;;;;;;;;10358422;28;20177;-58
2022/05/14 22:35:57;;;;;;;14.40;5.30;;;;;;;;;;10352051;28;20071;-57
2022/05/14 22:40:58;;;;;;;5.30;3.97;;;;;;;;;;10357343;28;20398;-58
2022/05/14 22:45:58;;;;;;;6.50;3.90;;;;;;;;;;10356786;28;20083;-57
2022/05/14 22:50:57;;;;;;;9.35;4.55;;;;;;;;;;10349357;28;20102;-57
2022/05/14 22:55:56;;;;;;;8.02;4.68;;;;;;;;;;10358192;28;20078;-57
2022/05/14 23:00:56;;;;;;;7.38;3.72;;;;;;;;;;10358175;28;20449;-57
2022/05/14 23:05:58;;;;;;;10.20;3.90;;;;;;;;;;10355186;28;20430;-58
2022/05/14 23:10:56;;;;;;;7.55;4.07;;;;;;;;;;10356235;28;20087;-57
2022/05/14 23:15:54;;;;;;;8.88;4.05;;;;;;;;;;10356513;28;20460;-57
2022/05/14 23:20:57;;;;;;;9.25;4.20;;;;;;;;;;10356324;28;20064;-57
2022/05/14 23:26:07;;;;;;;10.80;4.15;;;;;;;;;;10354237;28;20048;-57
2022/05/14 23:31:06;;;;;;;5.90;4.07;;;;;;;;;;10356355;28;20040;-57
2022/05/14 23:41:22;;;;;;;5.10;4.53;;;;;;;;;;10353519;28;20585;-54
2022/05/14 23:46:20;;;;;;;5.15;3.40;;;;;;;;;;10354304;28;20489;-57
2022/05/14 23:51:19;;;;;;;5.40;3.92;;;;;;;;;;10356669;28;20055;-57
2022/05/14 23:56:17;;;;;;;5.22;4.25;;;;;;;;;;10355366;28;20072;-57
